Archival Weather

Heathrow

Heathrow, United Kingdom (EGLL)

Report from: Thursday, June 23, 2022 12:20 PM BST
Current time: Tuesday, August 16, 2022 7:22 AM BST

Current weather
Weather history
Weather forecast

Temperature21.0°C (69.8°F)
Dew point14.0°C (57.2°F)
Winds 4 kts (2.1 m/s, 4.6 mph) Vrb
Winds variableWinds variable from East-Northeast (70°) to North-Northwest (330°)
Visibility6.2 mi. (10 km)
Clouds Sky clear
Altimeter29.83 in.Hg (1010 mB)
Relative humidity64 %
Density altitude1,032 ft. (315 m)
Remarks Fully automated report
No clouds detected
No significant changes expected in the next two hours
Flight conditions Visual Meteorological Conditions
Raw dataEGLL 231120Z AUTO 04004KT 330V070 9999 NCD 21/14 Q1010 NOSIG
An error has occurred. This application may no longer respond until reloaded. Reload 🗙